Terminal Aerodrome Forecast
Issued by NWS

Home | Current Version | Previous Version | Graphics & Text | Print | Product List | Glossary On
Versions: 1 2 3 4 5 6 7 8 9 10 11 12 13 14 15
156
FTUS43 KTOP 220520
TAFMHK
TAF
KMHK 220520Z 2206/2306 18013KT P6SM FEW250 WS012/19045KT
     FM221300 17012KT P6SM FEW200
     FM221700 17014G23KT P6SM FEW060
     FM230100 16009KT P6SM FEW250=

USA.gov is the U.S. government's official web portal to all federal, state and local government web resources and services.